createdAt,value
2018-10-04T00:02:57.294Z,16.50
2018-10-04T00:05:34.325Z,11.00
2018-10-04T00:11:25.893Z,6.62
2018-10-04T00:14:11.146Z,5.33
2018-10-04T00:19:33.905Z,9.18
2018-10-04T00:22:12.524Z,8.15
2018-10-04T00:24:48.238Z,9.00
2018-10-04T00:27:27.859Z,8.05
2018-10-04T00:30:09.552Z,8.43
2018-10-04T00:32:47.504Z,6.00
2018-10-04T00:35:21.768Z,9.08
2018-10-04T00:37:57.093Z,8.60
2018-10-04T00:40:32.963Z,5.87
2018-10-04T00:43:08.657Z,5.03
2018-10-04T00:45:43.156Z,10.70
2018-10-04T00:48:23.488Z,10.03
2018-10-04T00:50:57.872Z,5.10
2018-10-04T00:53:32.433Z,14.07
2018-10-04T00:56:07.056Z,5.10
2018-10-04T00:58:42.410Z,10.78
2018-10-04T01:01:17.022Z,6.55
2018-10-04T01:03:51.897Z,17.07
2018-10-04T01:06:27.801Z,17.70
2018-10-04T01:09:03.401Z,10.58
2018-10-04T01:11:38.733Z,8.95
2018-10-04T01:14:16.521Z,7.50
2018-10-04T01:16:51.114Z,7.37
2018-10-04T01:19:26.470Z,12.35
2018-10-04T01:22:09.135Z,9.43
2018-10-04T01:24:45.597Z,12.20
2018-10-04T01:27:20.778Z,8.90
2018-10-04T01:32:48.399Z,11.97
2018-10-04T01:35:24.105Z,11.65
2018-10-04T01:37:58.760Z,16.37
2018-10-04T01:40:33.549Z,13.75
2018-10-04T01:43:08.659Z,7.85
2018-10-04T01:45:43.177Z,15.72
2018-10-04T01:48:17.973Z,5.28
2018-10-04T01:50:52.532Z,9.35
2018-10-04T01:53:26.997Z,10.85
2018-10-04T01:56:01.784Z,15.32
2018-10-04T01:58:36.638Z,5.00
2018-10-04T02:01:11.277Z,15.13
2018-10-04T02:03:46.589Z,10.08
2018-10-04T02:06:20.986Z,11.15
2018-10-04T02:08:55.777Z,7.28
2018-10-04T02:11:30.452Z,11.85
2018-10-04T02:14:05.108Z,9.18
2018-10-04T02:16:40.557Z,7.40
2018-10-04T02:19:15.160Z,7.55
2018-10-04T02:21:49.530Z,14.38
2018-10-04T02:24:24.078Z,8.75
2018-10-04T02:26:59.317Z,8.88
2018-10-04T02:29:37.320Z,10.05
2018-10-04T02:32:11.774Z,6.95
2018-10-04T02:34:46.320Z,12.50
2018-10-04T02:37:21.157Z,9.38
2018-10-04T02:39:55.698Z,11.78
2018-10-04T02:42:30.648Z,8.33
2018-10-04T02:45:05.970Z,11.20
2018-10-04T02:47:40.426Z,10.80
2018-10-04T02:50:14.990Z,14.87
2018-10-04T02:52:49.415Z,9.43
2018-10-04T02:55:30.839Z,7.58
2018-10-04T02:58:05.455Z,14.63
2018-10-04T03:00:40.436Z,12.20
2018-10-04T03:03:14.963Z,9.30
2018-10-04T03:05:49.657Z,7.12
2018-10-04T03:08:24.244Z,12.40
2018-10-04T03:10:58.596Z,8.43
2018-10-04T03:13:33.318Z,12.35
2018-10-04T03:16:08.323Z,10.88
2018-10-04T03:18:42.942Z,17.73
2018-10-04T03:21:19.651Z,8.50
2018-10-04T03:23:54.454Z,16.90
2018-10-04T03:26:28.949Z,8.15
2018-10-04T03:29:04.510Z,7.67
2018-10-04T03:31:39.380Z,11.15
2018-10-04T03:34:18.078Z,7.05
2018-10-04T03:36:52.793Z,14.00
2018-10-04T03:39:27.385Z,7.00
2018-10-04T03:42:02.417Z,13.18
2018-10-04T03:44:37.166Z,10.97
2018-10-04T03:47:11.819Z,9.45
2018-10-04T03:49:46.576Z,9.35
2018-10-04T03:52:21.566Z,22.87
2018-10-04T03:54:56.930Z,12.73
2018-10-04T03:57:32.530Z,14.23
2018-10-04T04:00:07.310Z,14.47
2018-10-04T04:02:41.937Z,8.53
2018-10-04T04:05:16.565Z,11.10
2018-10-04T04:07:51.165Z,9.60
2018-10-04T04:10:25.823Z,15.03
2018-10-04T04:13:00.589Z,16.62
2018-10-04T04:15:35.025Z,10.35
2018-10-04T04:18:09.725Z,6.87
2018-10-04T04:20:44.370Z,13.83
2018-10-04T04:23:18.827Z,6.62
2018-10-04T04:25:54.353Z,8.75
2018-10-04T04:28:29.011Z,22.73
2018-10-04T04:31:03.990Z,6.77
2018-10-04T04:33:39.119Z,9.23
2018-10-04T04:36:13.690Z,7.53
2018-10-04T04:38:48.675Z,10.37
2018-10-04T04:41:23.464Z,10.90
2018-10-04T04:43:58.070Z,11.10
2018-10-04T04:46:33.664Z,10.40
2018-10-04T04:49:08.590Z,13.00
2018-10-04T04:51:43.623Z,16.00
2018-10-04T04:54:27.362Z,15.70
2018-10-04T04:57:03.140Z,11.90
2018-10-04T04:59:38.007Z,15.40
2018-10-04T05:02:13.579Z,16.60
2018-10-04T05:04:52.541Z,9.10
2018-10-04T05:07:26.968Z,14.60
2018-10-04T05:10:03.062Z,13.67
2018-10-04T05:12:37.915Z,16.45
2018-10-04T05:15:13.287Z,13.45
2018-10-04T05:17:58.880Z,10.38
2018-10-04T05:20:42.881Z,14.75
2018-10-04T05:23:44.667Z,24.35
2018-10-04T05:26:27.867Z,11.18
2018-10-04T05:32:02.128Z,10.23
2018-10-04T05:34:47.922Z,21.50
2018-10-04T05:37:32.701Z,13.03
2018-10-04T05:40:13.905Z,18.57
2018-10-04T05:42:50.898Z,16.12
2018-10-04T05:45:27.748Z,16.80
2018-10-04T06:06:06.121Z,15.20
2018-10-04T06:08:45.357Z,19.65
2018-10-04T06:11:25.471Z,13.78
2018-10-04T06:14:17.187Z,14.60
2018-10-04T06:17:02.379Z,11.25
2018-10-04T06:19:49.315Z,18.17
2018-10-04T06:25:12.406Z,15.43
2018-10-04T06:27:46.853Z,16.27
2018-10-04T06:30:21.292Z,13.70
2018-10-04T06:32:55.728Z,13.37
2018-10-04T06:35:30.266Z,12.93
2018-10-04T06:38:04.629Z,23.63
2018-10-04T06:40:38.977Z,13.45
2018-10-04T06:43:14.125Z,13.90
2018-10-04T06:45:48.716Z,22.32
2018-10-04T06:48:23.154Z,12.43
2018-10-04T06:50:57.516Z,12.80
2018-10-04T06:53:31.899Z,15.23
2018-10-04T06:56:06.303Z,14.23
2018-10-04T06:58:40.737Z,13.00
2018-10-04T07:01:15.161Z,19.97
2018-10-04T07:03:50.518Z,29.70
2018-10-04T07:06:40.127Z,19.87
2018-10-04T07:18:10.505Z,22.10
2018-10-04T07:20:58.792Z,21.23
2018-10-04T07:23:44.176Z,21.50
2018-10-04T07:26:30.738Z,22.22
2018-10-04T07:32:41.021Z,29.77
2018-10-04T07:38:24.435Z,25.77
2018-10-04T07:47:02.362Z,20.97
2018-10-04T07:52:35.905Z,16.70
2018-10-04T07:58:11.739Z,16.93
2018-10-04T08:09:27.556Z,18.20
2018-10-04T08:29:36.337Z,20.40
2018-10-04T08:37:55.175Z,22.63
2018-10-04T08:40:30.545Z,18.90
2018-10-04T08:43:05.636Z,14.23
2018-10-04T08:45:40.498Z,19.60
2018-10-04T08:48:16.554Z,24.03
2018-10-04T08:50:51.831Z,20.73
2018-10-04T08:53:26.872Z,24.40
2018-10-04T08:56:03.691Z,18.33
2018-10-04T08:58:42.493Z,26.93
2018-10-04T09:01:18.140Z,26.60
2018-10-04T09:04:00.654Z,25.00
2018-10-04T09:06:37.425Z,19.23
2018-10-04T09:09:15.159Z,21.33
2018-10-04T09:11:50.748Z,25.70
2018-10-04T09:14:25.465Z,20.00
2018-10-04T09:17:07.064Z,24.90
2018-10-04T09:19:41.405Z,23.00
2018-10-04T09:22:18.109Z,25.00
2018-10-04T09:24:53.245Z,22.30
2018-10-04T09:27:28.248Z,33.70
2018-10-04T09:30:11.934Z,32.70
2018-10-04T09:32:47.105Z,30.47
2018-10-04T09:35:28.684Z,24.00
2018-10-04T09:38:07.532Z,20.77
2018-10-04T09:40:44.222Z,25.90
2018-10-04T09:43:27.918Z,23.23
2018-10-04T09:46:06.553Z,23.67
2018-10-04T09:48:46.007Z,25.97
2018-10-04T09:51:26.244Z,23.10
2018-10-04T09:54:03.436Z,27.30
2018-10-04T09:56:44.154Z,22.67
2018-10-04T09:59:20.766Z,28.17
2018-10-04T10:02:05.548Z,31.33
2018-10-04T10:04:42.278Z,26.03
2018-10-04T10:07:18.994Z,22.17
2018-10-04T10:09:54.068Z,24.00
2018-10-04T10:12:31.693Z,25.77
2018-10-04T10:15:06.742Z,27.40
2018-10-04T10:17:51.925Z,24.33
2018-10-04T10:20:26.505Z,20.83
2018-10-04T10:23:03.327Z,24.50
2018-10-04T10:25:42.742Z,22.80
2018-10-04T10:28:18.874Z,23.47
2018-10-04T10:30:56.008Z,22.63
2018-10-04T10:33:35.056Z,21.80
2018-10-04T10:36:14.548Z,20.53
2018-10-04T10:38:50.140Z,23.13
2018-10-04T10:41:28.685Z,21.40
2018-10-04T10:44:03.955Z,22.93
2018-10-04T10:46:42.774Z,19.30
2018-10-04T10:49:23.624Z,19.23
2018-10-04T10:52:04.713Z,21.80
2018-10-04T10:54:47.057Z,18.30
2018-10-04T10:57:30.233Z,17.73
2018-10-04T11:00:22.764Z,18.63
2018-10-04T11:03:03.739Z,13.47
2018-10-04T11:08:39.652Z,15.73
2018-10-04T11:11:23.400Z,20.63
2018-10-04T11:17:16.739Z,19.20
2018-10-04T11:22:49.679Z,15.80
2018-10-04T11:34:21.163Z,15.80
2018-10-04T11:37:02.443Z,14.97
2018-10-04T11:39:47.662Z,15.00
2018-10-04T11:42:39.503Z,15.83
2018-10-04T11:45:27.329Z,16.67
2018-10-04T11:59:26.428Z,14.10
2018-10-04T12:02:02.783Z,12.33
2018-10-04T12:04:38.478Z,15.63
2018-10-04T12:07:13.960Z,16.50
2018-10-04T12:09:54.894Z,13.30
2018-10-04T12:12:31.342Z,13.40
2018-10-04T12:15:08.770Z,16.80
2018-10-04T12:17:49.320Z,12.23
2018-10-04T12:23:18.832Z,12.73
2018-10-04T12:25:59.595Z,11.17
2018-10-04T12:28:35.367Z,11.83
2018-10-04T12:31:11.669Z,15.50
2018-10-04T12:33:53.834Z,10.43
2018-10-04T12:36:33.383Z,16.20
2018-10-04T12:39:15.033Z,11.53
2018-10-04T12:41:51.707Z,12.07
2018-10-04T12:44:27.068Z,11.90
2018-10-04T12:47:02.200Z,24.23
2018-10-04T12:49:37.600Z,10.60
2018-10-04T12:52:14.051Z,11.10
2018-10-04T12:54:49.811Z,10.17
2018-10-04T12:57:48.201Z,10.40
2018-10-04T13:00:22.965Z,9.67
2018-10-04T13:02:58.577Z,10.50
2018-10-04T13:05:33.445Z,9.73
2018-10-04T13:08:08.082Z,12.33
2018-10-04T13:10:42.994Z,9.17
2018-10-04T13:13:22.041Z,11.00
2018-10-04T13:16:04.265Z,12.27
2018-10-04T13:18:46.388Z,12.60
2018-10-04T13:24:13.513Z,11.53
2018-10-04T13:26:49.079Z,10.93
2018-10-04T13:29:30.709Z,12.40
2018-10-04T13:32:09.300Z,12.33
2018-10-04T13:37:46.557Z,10.83
2018-10-04T13:40:25.100Z,13.80
2018-10-04T13:43:07.670Z,12.30
2018-10-04T13:45:46.061Z,11.67
2018-10-04T13:48:27.205Z,13.00
2018-10-04T13:51:12.519Z,14.83
2018-10-04T13:56:40.590Z,9.70
2018-10-04T14:02:25.964Z,10.77
2018-10-04T14:05:12.646Z,10.67
2018-10-04T14:10:44.923Z,11.07
2018-10-04T14:16:15.409Z,13.10
2018-10-04T14:18:56.110Z,18.50
2018-10-04T14:21:33.945Z,12.80
2018-10-04T14:24:10.994Z,7.83
2018-10-04T14:29:32.794Z,8.63
2018-10-04T14:32:08.926Z,13.60
2018-10-04T14:34:46.561Z,9.33
2018-10-04T14:37:34.118Z,8.57
2018-10-04T14:45:53.995Z,8.70
2018-10-04T14:48:30.807Z,15.43
2018-10-04T14:51:07.821Z,9.67
2018-10-04T14:53:45.324Z,9.20
2018-10-04T14:56:24.582Z,7.20
2018-10-04T15:01:48.513Z,9.93
2018-10-04T15:04:32.178Z,8.40
2018-10-04T15:07:18.494Z,9.10
2018-10-04T15:10:04.873Z,10.00
2018-10-04T15:12:50.951Z,10.17
2018-10-04T15:15:26.853Z,9.37
2018-10-04T15:18:07.629Z,9.60
2018-10-04T15:20:45.157Z,9.37
2018-10-04T15:26:11.401Z,8.90
2018-10-04T15:28:48.397Z,8.80
2018-10-04T15:31:35.481Z,11.50
2018-10-04T15:34:34.051Z,9.47
2018-10-04T15:40:03.222Z,8.83
2018-10-04T15:42:44.879Z,9.70
2018-10-04T15:45:31.426Z,9.87
2018-10-04T15:48:07.874Z,9.90
2018-10-04T15:50:43.503Z,10.67
2018-10-04T15:53:18.932Z,10.87
2018-10-04T15:55:56.796Z,10.67
2018-10-04T15:58:31.156Z,9.40
2018-10-04T16:01:05.529Z,10.83
2018-10-04T16:03:40.116Z,13.13
2018-10-04T16:06:14.890Z,12.80
2018-10-04T16:08:51.382Z,13.23
2018-10-04T16:11:26.165Z,10.63
2018-10-04T16:14:03.360Z,9.33
2018-10-04T16:16:45.076Z,12.63
2018-10-04T16:19:20.916Z,15.10
2018-10-04T16:21:56.304Z,17.13
2018-10-04T16:24:32.656Z,9.97
2018-10-04T16:27:12.753Z,13.13
2018-10-04T16:29:47.241Z,18.30
2018-10-04T16:32:21.837Z,19.40
2018-10-04T16:35:02.341Z,11.10
2018-10-04T16:37:38.387Z,12.53
2018-10-04T16:40:13.656Z,13.80
2018-10-04T16:42:50.057Z,11.90
2018-10-04T16:45:24.622Z,20.10
2018-10-04T16:47:59.552Z,11.07
2018-10-04T16:50:33.820Z,12.83
2018-10-04T16:53:08.021Z,10.27
2018-10-04T16:55:42.901Z,9.77
2018-10-04T16:58:17.466Z,15.50
2018-10-04T17:00:54.894Z,11.53
2018-10-04T17:03:30.791Z,10.57
2018-10-04T17:06:07.538Z,13.33
2018-10-04T17:08:45.975Z,10.50
2018-10-04T17:11:20.706Z,12.07
2018-10-04T17:13:55.303Z,17.03
2018-10-04T17:16:32.390Z,10.40
2018-10-04T17:19:19.089Z,11.37
2018-10-04T17:21:54.626Z,13.00
2018-10-04T17:24:35.705Z,12.10
2018-10-04T17:27:10.633Z,12.37
2018-10-04T17:29:53.734Z,13.43
2018-10-04T17:32:30.215Z,13.10
2018-10-04T17:35:08.224Z,12.93
2018-10-04T17:37:45.873Z,16.20
2018-10-04T17:40:20.762Z,12.23
2018-10-04T17:42:59.156Z,12.33
2018-10-04T17:45:37.898Z,12.33
2018-10-04T17:48:17.558Z,14.70
2018-10-04T17:50:53.347Z,16.53
2018-10-04T17:53:29.510Z,13.10
2018-10-04T17:56:05.044Z,11.43
2018-10-04T17:58:39.553Z,10.43
2018-10-04T18:01:14.488Z,11.73
2018-10-04T18:03:48.953Z,15.60
2018-10-04T18:06:24.903Z,10.73
2018-10-04T18:08:59.552Z,11.80
2018-10-04T18:11:34.276Z,14.40
2018-10-04T18:14:09.089Z,17.90
2018-10-04T18:16:43.652Z,14.40
2018-10-04T18:19:18.776Z,11.53
2018-10-04T18:21:53.516Z,15.00
2018-10-04T18:24:28.187Z,12.97
2018-10-04T18:27:02.906Z,28.83
2018-10-04T18:29:37.415Z,29.17
2018-10-04T18:32:11.805Z,15.23
2018-10-04T18:34:46.327Z,12.90
2018-10-04T18:37:20.741Z,13.47
2018-10-04T18:39:55.550Z,17.13
2018-10-04T18:42:31.321Z,14.33
2018-10-04T18:45:08.463Z,14.50
2018-10-04T18:47:44.132Z,12.93
2018-10-04T18:50:18.718Z,10.63
2018-10-04T18:53:00.026Z,10.70
2018-10-04T18:55:36.267Z,14.70
2018-10-04T18:58:11.443Z,21.70
2018-10-04T19:00:46.062Z,18.93
2018-10-04T19:03:21.667Z,17.70
2018-10-04T19:05:56.850Z,20.17
2018-10-04T19:08:31.826Z,18.60
2018-10-04T19:11:07.778Z,12.70
2018-10-04T19:13:44.842Z,16.80
2018-10-04T19:16:21.050Z,10.30
2018-10-04T19:18:55.933Z,14.17
2018-10-04T19:21:31.304Z,12.30
2018-10-04T19:24:05.968Z,13.53
2018-10-04T19:26:50.610Z,9.50
2018-10-04T19:29:25.278Z,9.27
2018-10-04T19:31:59.920Z,14.57
2018-10-04T19:34:35.105Z,10.97
2018-10-04T19:37:09.898Z,11.87
2018-10-04T19:39:44.703Z,11.00
2018-10-04T19:42:24.282Z,13.00
2018-10-04T19:44:59.541Z,11.50
2018-10-04T19:47:34.202Z,11.07
2018-10-04T19:50:08.942Z,11.00
2018-10-04T19:52:44.130Z,9.53
2018-10-04T19:55:24.380Z,10.10
2018-10-04T19:57:59.425Z,13.37
2018-10-04T20:00:34.177Z,11.43
2018-10-04T20:03:08.833Z,10.00
2018-10-04T20:05:43.265Z,10.23
2018-10-04T20:08:19.376Z,12.90
2018-10-04T20:10:54.066Z,14.27
2018-10-04T20:13:28.615Z,9.13
2018-10-04T20:16:03.250Z,10.33
2018-10-04T20:18:38.873Z,11.40
2018-10-04T20:21:14.046Z,12.27
2018-10-04T20:23:48.642Z,14.73
2018-10-04T20:26:26.736Z,18.43
2018-10-04T20:29:01.271Z,15.30
2018-10-04T20:31:37.365Z,15.80
2018-10-04T20:34:12.202Z,11.70
2018-10-04T20:36:48.218Z,13.43
2018-10-04T20:39:25.540Z,10.43
2018-10-04T20:44:43.908Z,11.03
2018-10-04T20:47:21.973Z,11.73
2018-10-04T20:50:03.963Z,10.50
2018-10-04T20:52:40.518Z,11.53
2018-10-04T20:55:17.620Z,10.80
2018-10-04T20:57:53.869Z,10.63
2018-10-04T21:00:31.983Z,10.60
2018-10-04T21:05:54.423Z,10.80
2018-10-04T21:08:29.105Z,9.70
2018-10-04T21:11:10.069Z,8.73
2018-10-04T21:13:44.591Z,11.80
2018-10-04T21:16:19.156Z,11.20
2018-10-04T21:18:54.846Z,11.60
2018-10-04T21:21:31.412Z,11.17
2018-10-04T21:24:06.102Z,9.70
2018-10-04T21:26:47.712Z,10.70
2018-10-04T21:29:22.710Z,9.23
2018-10-04T21:31:57.842Z,14.70
2018-10-04T21:34:32.406Z,11.53
2018-10-04T21:37:06.985Z,9.07
2018-10-04T21:39:44.829Z,9.77
2018-10-04T21:42:25.946Z,9.63
2018-10-04T21:45:00.481Z,12.40
2018-10-04T21:47:36.013Z,11.70
2018-10-04T21:50:10.722Z,13.67
2018-10-04T21:52:45.214Z,16.20
2018-10-04T21:55:24.264Z,10.20
2018-10-04T21:58:01.754Z,11.57
2018-10-04T22:00:40.905Z,12.70
2018-10-04T22:03:16.098Z,15.43
2018-10-04T22:05:50.937Z,9.43
2018-10-04T22:08:25.753Z,15.70
2018-10-04T22:11:00.253Z,13.50
2018-10-04T22:13:34.778Z,9.57
2018-10-04T22:16:09.485Z,12.90
2018-10-04T22:18:44.082Z,12.27
2018-10-04T22:21:18.561Z,12.40
2018-10-04T22:23:53.450Z,11.13
2018-10-04T22:26:28.224Z,11.00
2018-10-04T22:29:02.702Z,10.60
2018-10-04T22:31:37.266Z,11.97
2018-10-04T22:34:11.670Z,10.80
2018-10-04T22:36:45.977Z,10.70
2018-10-04T22:39:20.528Z,13.43
2018-10-04T22:41:55.076Z,13.20
2018-10-04T22:44:30.099Z,11.50
2018-10-04T22:47:04.650Z,9.50
2018-10-04T22:49:39.173Z,12.80
2018-10-04T22:52:13.624Z,12.27
2018-10-04T22:54:48.075Z,10.10
2018-10-04T22:57:22.606Z,11.50
2018-10-04T22:59:57.229Z,12.00
2018-10-04T23:02:31.630Z,13.93
2018-10-04T23:05:06.910Z,9.57
2018-10-04T23:07:42.369Z,10.50
2018-10-04T23:10:17.809Z,12.67
2018-10-04T23:12:52.810Z,18.07
2018-10-04T23:15:27.760Z,12.20
2018-10-04T23:18:02.628Z,13.37
2018-10-04T23:20:38.357Z,11.80
2018-10-04T23:23:19.457Z,13.17
2018-10-04T23:25:55.801Z,13.10
2018-10-04T23:28:31.020Z,9.93
2018-10-04T23:31:07.350Z,13.30
2018-10-04T23:33:42.905Z,14.83
2018-10-04T23:36:17.292Z,11.37
2018-10-04T23:38:51.579Z,12.10
2018-10-04T23:41:26.065Z,12.30
2018-10-04T23:44:00.595Z,12.37
2018-10-04T23:46:35.016Z,10.33
2018-10-04T23:49:09.755Z,12.67
2018-10-04T23:51:49.389Z,12.30
2018-10-04T23:54:28.907Z,15.10
2018-10-04T23:57:03.636Z,12.43
2018-10-04T23:59:39.041Z,16.13
